Anacostia — WDE5804 — position and weather

sailwx.info

Track history (hours):
 
Tides and Currents Weather Stations Pressure Air Temp Water Temp Dewpoint Dewpoint Depression Visibility Wind Speed Wind Dir Waves Ship Positions

Anacostia

Owner: Vane Line Bunkering, Inc., Philadelphia, PA. More information available from US FCC via Universal Licensing System and Coast Guard Vessel Documentation Center.

Last reported at 2017-Nov-20 00:31 UTC. Time now 2017-Nov-20 07:58 UTC.
Position N 39°51' W 075°18'.

Length 33 m; draft 4.2 m.

Type: Towing. MMSI: 367371820.

Date/timePositionNaut miles runAvg speedWind from/ knotsBaromVisibWave heightAir tempDewpointWater temp
2017-Nov-20 00:31N 39°51' W 075°18'153776842.0
2017-Nov-20 00:29N 17°08' W 061°51'15383201.3
2017-Nov-20 00:00N 39°50' W 075°22'153877958.1
2017-Nov-19 23:59N 17°08' W 061°51'15373202.7
2017-Nov-19 23:31N 39°48' W 075°25'153776864.2
2017-Nov-19 23:29N 17°08' W 061°51'15373202.0
2017-Nov-19 23:01N 39°46' W 075°28'153776847.3
2017-Nov-19 22:59N 17°08' W 061°51'15363199.2
2017-Nov-19 22:31N 39°44' W 075°30'153676779.6
2017-Nov-19 22:29N 17°08' W 061°51'15343193.3
2017-Nov-19 22:00N 39°41' W 075°31'153477763.8
2017-Nov-19 21:59N 17°08' W 061°51'15333192.9
2017-Nov-19 21:31N 39°39' W 075°33'153376628.5
2017-Nov-19 21:29N 17°08' W 061°51'15313189.7
2017-Nov-19 21:01N 39°37' W 075°34'153176552.2
2017-Nov-19 20:59N 17°08' W 061°51'15283184.1
2017-Nov-19 20:31N 39°34' W 075°33'152876418.3
2017-Nov-19 20:29N 17°08' W 061°51'15303188.5
2017-Nov-19 20:01N 39°35' W 075°36'153076523.8
2017-Nov-19 19:59N 17°08' W 061°51'15303116.4
2017-Nov-19 19:30N 39°35' W 075°36'1530172178.5
2017-Nov-19 19:29N 17°08' W 061°51'15303118.1
2017-Nov-19 19:00N 39°35' W 075°36'1530166960.7
2017-Nov-19 18:59N 17°08' W 061°51'15303118.1
2017-Nov-19 18:30N 39°35' W 075°36'1530162049.6
2017-Nov-19 18:29N 17°08' W 061°51'15303118.1
2017-Nov-19 18:00N 39°35' W 075°36'1530172178.5
2017-Nov-19 17:59N 17°08' W 061°51'15303116.4
2017-Nov-19 17:30N 39°35' W 075°36'1530166961.0
2017-Nov-19 17:29N 17°08' W 061°51'15303118.1
2017-Nov-19 17:00N 39°35' W 075°36'1530172178.5
2017-Nov-19 16:59N 17°08' W 061°51'15303118.1
2017-Nov-19 16:30N 39°35' W 075°36'1530166960.7
2017-Nov-19 16:29N 17°08' W 061°51'15303118.1
2017-Nov-19 16:00N 39°35' W 075°36'1530162050.4
2017-Nov-19 15:59N 17°08' W 061°51'15303118.1
2017-Nov-19 15:30N 39°35' W 075°36'1530166961.0
2017-Nov-19 15:29N 17°08' W 061°51'15303116.4
2017-Nov-19 15:00N 39°35' W 075°36'1530172179.1
2017-Nov-19 14:59N 17°08' W 061°51'15303119.9
2017-Nov-19 14:30N 39°35' W 075°36'1530162050.4
2017-Nov-19 14:29N 17°08' W 061°51'15303118.1
2017-Nov-19 14:00N 39°35' W 075°36'1530166961.0
2017-Nov-19 13:59N 17°08' W 061°51'15303114.6
2017-Nov-19 13:30N 39°35' W 075°36'1530177733.3
2017-Nov-19 13:29N 17°08' W 061°51'15303116.4
2017-Nov-19 13:00N 39°35' W 075°36'1530172179.1
2017-Nov-19 12:59N 17°08' W 061°51'15303112.8
2017-Nov-19 12:30N 39°35' W 075°36'1530183657.1
2017-Nov-19 12:29N 17°08' W 061°51'15303118.1
2017-Nov-19 12:00N 39°35' W 075°36'1530166961.0
2017-Nov-19 11:59N 17°08' W 061°51'15303112.8
2017-Nov-19 11:30N 39°35' W 075°36'1530183657.7
2017-Nov-19 11:29N 17°08' W 061°51'15303114.6
2017-Nov-19 11:00N 39°35' W 075°36'1530177732.7
2017-Nov-19 10:59N 17°08' W 061°51'15303114.6
2017-Nov-19 10:30N 39°35' W 075°36'1530177732.4
2017-Nov-19 10:29N 17°08' W 061°51'15303114.6
2017-Nov-19 10:00N 39°35' W 075°36'1530177733.3
2017-Nov-19 09:59N 17°08' W 061°51'15303112.8
2017-Nov-19 09:30N 39°35' W 075°36'1530183657.1
2017-Nov-19 09:29N 17°08' W 061°51'15303114.6
2017-Nov-19 09:00N 39°35' W 075°36'1530177733.9
2017-Nov-19 08:59N 17°08' W 061°51'15303112.8
2017-Nov-19 08:30N 39°35' W 075°36'1530183657.7
2017-Nov-19 08:29N 17°08' W 061°51'15303114.6
2017-Nov-19 08:00N 39°35' W 075°36'1530177732.7
2017-Nov-19 07:59N 17°08' W 061°51'15303114.6
2017-Nov-19 07:30N 39°35' W 075°36'1530177732.7
2017-Nov-19 07:29N 17°08' W 061°51'15303112.8
2017-Nov-19 07:00N 39°35' W 075°36'1530183657.1
2017-Nov-19 06:59N 17°08' W 061°51'15303118.1
2017-Nov-19 06:30N 39°35' W 075°36'1530166961.3
2017-Nov-19 06:29N 17°08' W 061°51'15303114.6
2017-Nov-19 06:00N 39°35' W 075°36'1530172178.5
2017-Nov-19 05:59N 17°08' W 061°51'15303116.4
2017-Nov-19 05:30N 39°35' W 075°36'1530177733.6
2017-Nov-19 05:29N 17°08' W 061°51'0 0.0
2017-Nov-19 04:59N 17°08' W 061°51'153037227.9
2017-Nov-19 04:57N 39°35' W 075°36'0 0.0
2017-Nov-19 04:30N 39°35' W 075°36'1530172179.1
2017-Nov-19 04:29N 17°08' W 061°51'15303118.1
2017-Nov-19 04:00N 39°35' W 075°36'1530166961.0
2017-Nov-19 03:59N 17°08' W 061°51'15303118.1
2017-Nov-19 03:30N 39°35' W 075°36'1530166960.7
2017-Nov-19 03:29N 17°08' W 061°51'15303116.3
2017-Nov-19 03:00N 39°35' W 075°36'1530172179.1
2017-Nov-19 02:59N 17°08' W 061°51'15303116.4
2017-Nov-19 02:30N 39°35' W 075°36'1530172179.1
2017-Nov-19 02:29N 17°08' W 061°51'15303118.1
2017-Nov-19 02:00N 39°35' W 075°36'1530166961.0
2017-Nov-19 01:59N 17°08' W 061°51'15303116.4
2017-Nov-19 01:30N 39°35' W 075°36'153014055.4
2017-Nov-19 01:23N 17°08' W 061°51'15303913.2
2017-Nov-19 01:00N 39°35' W 075°36'1530172179.1
2017-Nov-19 00:59N 17°08' W 061°51'15303114.6
2017-Nov-19 00:30N 39°35' W 075°36'1530177732.7
2017-Nov-19 00:29N 17°08' W 061°51'15303116.4
2017-Nov-19 00:00N 39°35' W 075°36'1530172178.5
2017-Nov-18 23:59N 17°08' W 061°51'15303116.4
2017-Nov-18 23:30N 39°35' W 075°36'1530172178.2
2017-Nov-18 23:29N 17°08' W 061°51'15303114.6
2017-Nov-18 23:00N 39°35' W 075°36'1530177732.4
2017-Nov-18 22:59N 17°08' W 061°51'15303116.3
2017-Nov-18 22:30N 39°35' W 075°36'1530172178.2
2017-Nov-18 22:29N 17°08' W 061°51'15303112.8
2017-Nov-18 22:00N 39°35' W 075°36'1530183657.7
2017-Nov-18 21:59N 17°08' W 061°51'15303114.6
2017-Nov-18 21:30N 39°35' W 075°36'1530177732.7
2017-Nov-18 21:29N 17°08' W 061°51'15303114.6
2017-Nov-18 21:00N 39°35' W 075°36'1530177732.7
2017-Nov-18 20:59N 17°08' W 061°51'15303112.8
2017-Nov-18 20:30N 39°35' W 075°36'1530183657.4
2017-Nov-18 20:29N 17°08' W 061°51'15303112.8
2017-Nov-18 20:00N 39°35' W 075°36'1530177732.7
2017-Nov-18 19:59N 17°08' W 061°51'0 0.0
2017-Nov-18 19:30N 17°08' W 061°51'1530157419.8
2017-Nov-18 19:30N 39°35' W 075°36'15303120.4
2017-Nov-18 19:00N 17°08' W 061°52'1530161983.1
2017-Nov-18 19:00N 39°35' W 075°36'0 0.0
2017-Nov-18 18:30N 39°35' W 075°36'152980962.3
2017-Nov-18 18:29N 17°08' W 061°53'15293184.2
2017-Nov-18 18:00N 39°35' W 075°36'152977541.4
2017-Nov-18 17:59N 17°08' W 061°53'15293182.3
2017-Nov-18 17:30N 39°35' W 075°36'152978649.0
2017-Nov-18 17:29N 17°08' W 061°53'15293175.0
2017-Nov-18 17:00N 39°35' W 075°36'152983415.3
2017-Nov-18 16:59N 17°08' W 061°53'15293182.3
2017-Nov-18 16:30N 39°35' W 075°36'152977541.5
2017-Nov-18 16:29N 17°08' W 061°53'15293176.8
2017-Nov-18 16:00N 39°35' W 075°36'152982170.7
2017-Nov-18 15:59N 17°08' W 061°53'15293176.8
2017-Nov-18 15:30N 39°35' W 075°36'152982170.3
2017-Nov-18 15:29N 17°08' W 061°53'15293175.0
2017-Nov-18 15:00N 39°35' W 075°36'152983415.8
2017-Nov-18 14:59N 17°08' W 061°53'15293171.3
2017-Nov-18 14:30N 39°35' W 075°36'152987388.0
2017-Nov-18 14:29N 17°08' W 061°53'15293173.2
2017-Nov-18 14:00N 39°35' W 075°36'152922379.8
2017-Nov-18 13:56N 17°08' W 061°53'15293538.2
2017-Nov-18 13:30N 39°35' W 075°36'152986022.6
2017-Nov-18 13:29N 17°08' W 061°53'15293176.8
2017-Nov-18 13:00N 39°35' W 075°36'152982170.6
2017-Nov-18 12:59N 17°08' W 061°53'15293175.0
2017-Nov-18 12:30N 39°35' W 075°36'152983415.9
2017-Nov-18 12:29N 17°08' W 061°53'15293173.2
2017-Nov-18 12:00N 39°35' W 075°36'152984699.0
2017-Nov-18 11:59N 17°08' W 061°53'15293173.2
2017-Nov-18 11:30N 39°35' W 075°36'152984699.0
2017-Nov-18 11:29N 17°08' W 061°53'15293173.2
2017-Nov-18 11:00N 39°35' W 075°36'152984699.2
2017-Nov-18 10:59N 17°08' W 061°53'15293173.2
2017-Nov-18 10:30N 39°35' W 075°36'152984699.2
2017-Nov-18 10:29N 17°08' W 061°53'15293175.0
2017-Nov-18 10:00N 39°35' W 075°36'152983415.7
2017-Nov-18 09:59N 17°08' W 061°53'15292630.4
2017-Nov-18 09:24N 39°35' W 075°36'152982171.4
2017-Nov-18 09:23N 17°08' W 061°53'15294006.9
2017-Nov-18 09:00N 39°35' W 075°36'152983416.0
2017-Nov-18 08:59N 17°08' W 061°53'15293184.2
2017-Nov-18 08:30N 39°35' W 075°36'152977541.8
2017-Nov-18 08:29N 17°08' W 061°53'15293175.0
2017-Nov-18 08:00N 39°35' W 075°36'152982171.0
2017-Nov-18 07:59N 17°08' W 061°53'15293175.0
2017-Nov-18 07:30N 39°35' W 075°36'152984699.4
2017-Nov-18 07:29N 17°08' W 061°53'15293176.8
2017-Nov-18 07:00N 39°35' W 075°36'152980962.9
2017-Nov-18 06:59N 17°08' W 061°53'15293175.0
2017-Nov-18 06:30N 39°35' W 075°36'152922471.2
2017-Nov-18 06:26N 17°08' W 061°53'15293549.6
2017-Nov-18 06:00N 39°35' W 075°36'152922021.8
2017-Nov-18 05:56N 17°08' W 061°53'15293556.5
2017-Nov-18 05:30N 39°35' W 075°36'152976464.7
2017-Nov-18 05:29N 17°08' W 061°53'15293176.8
2017-Nov-18 05:00N 39°35' W 075°36'152983416.4
2017-Nov-18 04:59N 17°08' W 061°53'15293175.0
2017-Nov-18 04:30N 39°35' W 075°36'152983415.8
2017-Nov-18 04:29N 17°08' W 061°53'15293175.0
2017-Nov-18 04:00N 39°35' W 075°36'152982170.9
2017-Nov-18 03:59N 17°08' W 061°53'15293184.2
2017-Nov-18 03:30N 39°35' W 075°36'152977541.8
2017-Nov-18 03:29N 17°08' W 061°53'15293176.8
2017-Nov-18 03:00N 39°35' W 075°36'152982171.4
2017-Nov-18 02:59N 17°08' W 061°53'15293176.9
2017-Nov-18 02:30N 39°35' W 075°36'152982171.1
2017-Nov-18 02:29N 17°08' W 061°53'15293176.8
2017-Nov-18 02:00N 39°35' W 075°36'152982171.2
2017-Nov-18 01:59N 17°08' W 061°53'15293184.2
2017-Nov-18 01:30N 39°35' W 075°36'152977542.0
2017-Nov-18 01:29N 17°08' W 061°53'15293259.6
2017-Nov-18 01:01N 39°35' W 075°36'152949599.1
2017-Nov-18 00:59N 17°08' W 061°53'15293259.6
2017-Nov-18 00:31N 39°35' W 075°36'152949599.3
2017-Nov-18 00:29N 17°08' W 061°53'15293257.7
2017-Nov-18 00:00N 39°35' W 075°36'152950049.9
2017-Nov-17 23:59N 17°08' W 061°53'15293251.7
2017-Nov-17 23:30N 39°35' W 075°36'152951449.3
2017-Nov-17 23:29N 17°08' W 061°53'15293253.6
2017-Nov-17 23:00N 39°35' W 075°36'152950973.3
2017-Nov-17 22:59N 17°08' W 061°53'15283251.6
2017-Nov-17 22:30N 39°35' W 075°34'152850942.3
2017-Nov-17 22:29N 17°08' W 061°53'15293255.1
2017-Nov-17 22:00N 39°36' W 075°34'152950498.1
2017-Nov-17 21:59N 17°08' W 061°53'15323262.7
2017-Nov-17 21:30N 39°40' W 075°32'153250126.6
2017-Nov-17 21:29N 17°08' W 061°53'15343266.6
2017-Nov-17 21:00N 39°44' W 075°30'153450676.9
2017-Nov-17 20:59N 17°08' W 061°53'15363268.2
2017-Nov-17 20:30N 39°47' W 075°27'153651202.1
2017-Nov-17 20:29N 17°08' W 061°53'15363272.6
2017-Nov-17 20:00N 39°50' W 075°22'153650279.1
2017-Nov-17 19:59N 17°08' W 061°53'15353267.6
2017-Nov-17 19:30N 39°51' W 075°17'153550692.5
2017-Nov-17 19:29N 17°08' W 061°53'15353272.7
2017-Nov-17 19:01N 39°51' W 075°16'153549323.6
2017-Nov-17 18:59N 17°08' W 061°53'15353266.9
2017-Nov-17 18:30N 39°53' W 075°12'153550222.0
2017-Nov-17 18:29N 17°08' W 061°53'1 1.3
2017-Nov-17 18:00N 17°08' W 061°52'1536502751.1
2017-Nov-17 18:00N 39°54' W 075°12'0 0.0
2017-Nov-17 17:30N 39°54' W 075°12'153735027.6
2017-Nov-17 17:28N 17°07' W 061°51'15373368.5
2017-Nov-17 17:00N 39°54' W 075°12'153735250.8
2017-Nov-17 16:58N 17°07' W 061°51'15373370.5
2017-Nov-17 16:30N 39°54' W 075°12'153735250.9
2017-Nov-17 16:28N 17°07' W 061°51'15373364.4
2017-Nov-17 16:00N 39°54' W 075°12'153735477.0
2017-Nov-17 15:58N 17°07' W 061°51'15373368.5
2017-Nov-17 15:30N 39°54' W 075°12'153735476.8
2017-Nov-17 15:28N 17°07' W 061°51'15373368.5
2017-Nov-17 15:00N 39°54' W 075°12'153735027.9
2017-Nov-17 14:58N 17°07' W 061°51'0 0.4
2017-Nov-17 14:30N 17°07' W 061°51'1537395286.5
2017-Nov-17 14:30N 39°54' W 075°12'15373095.0
2017-Nov-17 14:00N 17°07' W 061°51'1537503085.9
2017-Nov-17 14:00N 39°54' W 075°12'0 0.0
2017-Nov-17 13:30N 39°54' W 075°12'1536162589.7
2017-Nov-17 13:30N 17°08' W 061°53'15363126.7
2017-Nov-17 13:00N 39°54' W 075°12'1536172749.3
2017-Nov-17 13:00N 17°08' W 061°53'15363126.7
2017-Nov-17 12:30N 39°54' W 075°12'1536172749.6
2017-Nov-17 12:30N 17°08' W 061°53'15363126.7
2017-Nov-17 12:00N 39°54' W 075°12'1536172749.9
2017-Nov-17 12:00N 17°08' W 061°53'15363130.2
2017-Nov-17 11:30N 39°54' W 075°12'1536162588.0
2017-Nov-17 11:30N 17°08' W 061°53'15363128.5
2017-Nov-17 11:00N 39°54' W 075°12'1536167515.6
2017-Nov-17 11:00N 17°08' W 061°53'15363128.5
2017-Nov-17 10:30N 39°54' W 075°12'1536167515.1
2017-Nov-17 10:30N 17°08' W 061°53'15363128.5
2017-Nov-17 10:00N 39°54' W 075°12'1536167514.4
2017-Nov-17 10:00N 17°08' W 061°53'15363128.5
2017-Nov-17 09:30N 39°54' W 075°12'1536167516.0
2017-Nov-17 09:30N 17°08' W 061°53'15363128.5
2017-Nov-17 09:00N 39°54' W 075°12'1536167515.8
2017-Nov-17 09:00N 17°08' W 061°53'15363124.9
2017-Nov-17 08:30N 39°54' W 075°12'1536178324.7
2017-Nov-17 08:30N 17°08' W 061°53'15363121.4
2017-Nov-17 08:00N 39°54' W 075°12'1536190622.0
2017-Nov-17 08:00N 17°08' W 061°53'15363126.7
2017-Nov-17 07:30N 39°54' W 075°12'1536172750.0
2017-Nov-17 07:30N 17°08' W 061°53'15363126.7
2017-Nov-17 07:00N 39°54' W 075°12'1536172752.0
2017-Nov-17 07:00N 17°08' W 061°53'15363126.7
2017-Nov-17 06:30N 39°54' W 075°12'1536172752.0
2017-Nov-17 06:30N 17°08' W 061°53'15363126.7
2017-Nov-17 06:00N 39°54' W 075°12'1536167517.6
2017-Nov-17 06:00N 17°08' W 061°53'15363130.3
2017-Nov-17 05:30N 39°54' W 075°12'1536162590.1
2017-Nov-17 05:30N 17°08' W 061°53'15363128.4
2017-Nov-17 05:00N 39°54' W 075°12'1536167512.0
2017-Nov-17 05:00N 17°08' W 061°53'15363093.4
2017-Nov-17 04:30N 39°54' W 075°12'1536460652.3
2017-Nov-17 04:30N 17°08' W 061°53'15363095.1
2017-Nov-17 04:00N 39°54' W 075°12'1536394848.3
2017-Nov-17 04:00N 17°08' W 061°53'15363095.1
2017-Nov-17 03:30N 39°54' W 075°12'1536368526.2
2017-Nov-17 03:30N 17°08' W 061°53'15343147.6
2017-Nov-17 03:00N 39°52' W 075°12'153424551.4
2017-Nov-17 02:57N 17°08' W 061°53'0 0.0
2017-Nov-17 02:30N 17°08' W 061°53'1535110485.1
2017-Nov-17 02:29N 39°51' W 075°16'1 1.6
2017-Nov-17 02:00N 39°51' W 075°17'1535117571.0
2017-Nov-17 02:00N 17°08' W 061°53'15363154.6
2017-Nov-17 01:30N 39°49' W 075°23'1536117660.5
2017-Nov-17 01:30N 17°08' W 061°53'15363153.6
2017-Nov-17 01:00N 39°46' W 075°28'1536117621.1
2017-Nov-17 01:00N 17°08' W 061°53'15333149.5
2017-Nov-17 00:30N 39°42' W 075°31'1533114956.9
2017-Nov-17 00:30N 17°08' W 061°53'15313149.4
2017-Nov-17 00:01N 39°38' W 075°34'1531110227.4
2017-Nov-17 00:00N 17°08' W 061°53'15273143.5
2017-Nov-16 23:31N 39°34' W 075°33'1527107803.6
2017-Nov-16 23:30N 17°08' W 061°53'15293087.7
2017-Nov-16 23:00N 39°35' W 075°36'1529323841.1
2017-Nov-16 23:00N 17°08' W 061°53'15293087.7
2017-Nov-16 22:30N 39°35' W 075°36'1529323839.0
2017-Nov-16 22:30N 17°08' W 061°53'0 0.0
2017-Nov-16 22:00N 17°08' W 061°53'15291835039.0
2017-Nov-16 22:00N 39°35' W 075°36'15293063.5
2017-Nov-16 21:30N 17°08' W 061°53'15292752559.3
2017-Nov-16 21:30N 39°35' W 075°36'15293060.1
2017-Nov-16 21:00N 17°08' W 061°53'15291835038.5
2017-Nov-16 21:00N 39°35' W 075°36'15293065.4
2017-Nov-16 20:30N 17°08' W 061°53'15291835130.8
2017-Nov-16 20:30N 39°35' W 075°36'0 0.0
2017-Nov-16 20:00N 39°35' W 075°36'1529393118.5
2017-Nov-16 19:59N 17°09' W 061°52'15293083.3
2017-Nov-16 19:30N 39°35' W 075°36'1529343979.4
2017-Nov-16 19:29N 17°09' W 061°52'15293083.3
2017-Nov-16 19:00N 39°35' W 075°36'1529393116.5
2017-Nov-16 18:59N 17°09' W 061°52'15293083.3
2017-Nov-16 18:30N 39°35' W 075°36'1529366909.3
2017-Nov-16 18:29N 17°09' W 061°52'15293085.0
2017-Nov-16 18:00N 39°35' W 075°36'1529343976.9
2017-Nov-16 17:59N 17°09' W 061°52'15293083.3
2017-Nov-16 17:30N 39°35' W 075°36'1529343976.9
2017-Nov-16 17:29N 17°09' W 061°52'15293085.0
2017-Nov-16 17:00N 39°35' W 075°36'1529343977.5
2017-Nov-16 16:59N 17°09' W 061°52'15293085.0
2017-Nov-16 16:30N 39°35' W 075°36'1529366910.0
2017-Nov-16 16:29N 17°09' W 061°52'15293081.5
2017-Nov-16 16:00N 39°35' W 075°36'1529366907.4
2017-Nov-16 15:59N 17°09' W 061°52'15293086.7
2017-Nov-16 15:30N 39°35' W 075°36'1529323743.5
2017-Nov-16 15:29N 17°09' W 061°52'15293085.0
2017-Nov-16 15:00N 39°35' W 075°36'1529343978.1
2017-Nov-16 14:59N 17°09' W 061°52'15293085.0
2017-Nov-16 14:30N 39°35' W 075°36'1529343977.5
2017-Nov-16 14:29N 17°09' W 061°52'0 0.0
2017-Nov-16 13:59N 17°09' W 061°52'152933355.5
2017-Nov-16 13:57N 39°35' W 075°36'0 0.0
2017-Nov-16 13:30N 39°35' W 075°36'1529366910.6
2017-Nov-16 13:29N 17°09' W 061°52'15293081.6
2017-Nov-16 13:00N 39°35' W 075°36'1529393118.5
2017-Nov-16 12:59N 17°09' W 061°52'15293079.8
2017-Nov-16 12:30N 39°35' W 075°36'1529423358.4
2017-Nov-16 12:29N 17°09' W 061°52'0 0.4
2017-Nov-16 12:00N 17°09' W 061°52'1529117098.6
2017-Nov-16 12:00N 39°35' W 075°36'0 0.0
2017-Nov-16 11:30N 39°35' W 075°36'15292752541.3
2017-Nov-16 11:30N 17°08' W 061°53'15293061.8
2017-Nov-16 11:00N 39°35' W 075°36'15291835025.1
2017-Nov-16 11:00N 17°08' W 061°53'15293065.2
2017-Nov-16 10:30N 39°35' W 075°36'15291376273.7
2017-Nov-16 10:30N 17°08' W 061°53'15293063.5
2017-Nov-16 10:00N 39°35' W 075°36'15291835034.6
2017-Nov-16 10:00N 17°08' W 061°53'15293065.2
2017-Nov-16 09:30N 39°35' W 075°36'15291835041.7
2017-Nov-16 09:30N 17°08' W 061°53'15293061.8
2017-Nov-16 09:00N 39°35' W 075°36'15291376285.9
2017-Nov-16 09:00N 17°08' W 061°53'0 0.2
2017-Nov-16 08:30N 17°08' W 061°53'1529117136.2
2017-Nov-16 08:30N 39°35' W 075°36'15303144.7
2017-Nov-16 08:00N 17°08' W 061°51'1530112439.6
2017-Nov-16 08:00N 39°35' W 075°36'15303111.0
2017-Nov-16 07:30N 17°08' W 061°51'1530204056.3
2017-Nov-16 07:30N 39°35' W 075°36'15303107.5
2017-Nov-16 07:00N 17°08' W 061°51'1530204056.6
2017-Nov-16 07:00N 39°35' W 075°36'15303107.5
2017-Nov-16 06:30N 17°08' W 061°51'1530204056.3
2017-Nov-16 06:30N 39°35' W 075°36'15303105.7
2017-Nov-16 06:00N 17°08' W 061°51'1530196768.9
2017-Nov-16 06:00N 39°35' W 075°36'15303109.2
2017-Nov-16 05:30N 17°08' W 061°51'1530211905.3
2017-Nov-16 05:30N 39°35' W 075°36'15303105.7
2017-Nov-16 05:00N 17°08' W 061°51'1530204056.3
2017-Nov-16 05:00N 39°35' W 075°36'15303107.5
2017-Nov-16 04:30N 17°08' W 061°51'1530211905.4
2017-Nov-16 04:30N 39°35' W 075°36'15303105.7
2017-Nov-16 04:00N 17°08' W 061°51'1530204057.0
2017-Nov-16 04:00N 39°35' W 075°36'15303107.5
2017-Nov-16 03:30N 17°08' W 061°51'153026488.3
2017-Nov-16 03:27N 39°35' W 075°36'15303460.8
2017-Nov-16 03:00N 17°08' W 061°51'1530204057.4
2017-Nov-16 03:00N 39°35' W 075°36'15303107.5
2017-Nov-16 02:30N 17°08' W 061°51'1530204057.3
2017-Nov-16 02:30N 39°35' W 075°36'15303107.5
2017-Nov-16 02:00N 17°08' W 061°51'1530196768.9
2017-Nov-16 02:00N 39°35' W 075°36'15303109.2
2017-Nov-16 01:30N 17°08' W 061°51'153026616.1
2017-Nov-16 01:27N 39°35' W 075°36'15303458.6
2017-Nov-16 01:00N 17°08' W 061°51'1530196769.6
2017-Nov-16 01:00N 39°35' W 075°36'15303109.2
2017-Nov-16 00:30N 17°08' W 061°51'1530211904.6
2017-Nov-16 00:30N 39°35' W 075°36'15303105.7
2017-Nov-16 00:00N 17°08' W 061°51'1530204057.0
2017-Nov-16 00:00N 39°35' W 075°36'15303107.5
2017-Nov-15 23:30N 17°08' W 061°51'1530189983.5
2017-Nov-15 23:30N 39°35' W 075°36'15303111.0
2017-Nov-15 23:00N 17°08' W 061°51'1530204056.0
2017-Nov-15 23:00N 39°35' W 075°36'15303107.4
2017-Nov-15 22:30N 17°08' W 061°51'1530189983.2
2017-Nov-15 22:30N 39°35' W 075°36'15303111.0
2017-Nov-15 22:00N 17°08' W 061°51'1530196769.3
2017-Nov-15 22:00N 39°35' W 075°36'15303109.2
2017-Nov-15 21:30N 17°08' W 061°51'1530189984.5
2017-Nov-15 21:30N 39°35' W 075°36'15303111.0
2017-Nov-15 21:00N 17°08' W 061°51'1530211905.0
2017-Nov-15 21:00N 39°35' W 075°36'15303105.7
2017-Nov-15 20:30N 17°08' W 061°51'1530189984.1
2017-Nov-15 20:30N 39°35' W 075°36'0 0.6
2017-Nov-15 20:00N 39°35' W 075°35'1530275426.8
2017-Nov-15 20:00N 17°08' W 061°51'15283087.8
2017-Nov-15 19:30N 39°33' W 075°33'1528289439.8
2017-Nov-15 19:30N 17°08' W 061°51'15273087.0
2017-Nov-15 19:00N 39°33' W 075°33'1527289367.2
2017-Nov-15 19:00N 17°08' W 061°51'15273088.8
2017-Nov-15 18:30N 39°33' W 075°33'1527261807.5
2017-Nov-15 18:30N 17°08' W 061°51'15273088.8
2017-Nov-15 18:00N 39°33' W 075°33'1527274900.6
2017-Nov-15 18:00N 17°08' W 061°51'15273088.8
2017-Nov-15 17:30N 39°33' W 075°33'1527274898.3
2017-Nov-15 17:30N 17°08' W 061°51'15273087.1
2017-Nov-15 17:00N 39°33' W 075°33'1527305446.6
2017-Nov-15 17:00N 17°08' W 061°51'15273085.4
2017-Nov-15 16:30N 39°33' W 075°33'1527289374.8
2017-Nov-15 16:30N 17°08' W 061°51'15273087.2
2017-Nov-15 16:00N 39°33' W 075°33'1527289387.3
2017-Nov-15 16:00N 17°08' W 061°51'15273089.2
2017-Nov-15 15:30N 39°33' W 075°33'1527274937.8
2017-Nov-15 15:30N 17°08' W 061°51'15293091.1
2017-Nov-15 15:00N 39°35' W 075°33'1529289749.0
2017-Nov-15 15:00N 17°08' W 061°51'15323097.1
2017-Nov-15 14:30N 39°38' W 075°34'1532290316.9
2017-Nov-15 14:30N 17°08' W 061°51'15333104.3
2017-Nov-15 14:00N 39°40' W 075°32'1533262827.4
2017-Nov-15 14:00N 17°08' W 061°51'15353102.7
2017-Nov-15 13:30N 39°43' W 075°30'1535276297.7
2017-Nov-15 13:30N 17°08' W 061°51'15373123.5
2017-Nov-15 13:01N 39°46' W 075°29'1537190748.0
2017-Nov-15 13:00N 17°08' W 061°51'15373089.9
2017-Nov-15 12:30N 39°48' W 075°26'1537614889.4
2017-Nov-15 12:30N 17°08' W 061°51'15373119.8
2017-Nov-15 12:00N 39°49' W 075°23'1537212864.4
2017-Nov-15 12:00N 17°08' W 061°51'15373121.6
2017-Nov-15 11:31N 39°51' W 075°20'1537204982.8
2017-Nov-15 11:30N 17°08' W 061°51'15363116.3
2017-Nov-15 11:00N 39°51' W 075°15'1536212626.8
2017-Nov-15 11:00N 17°08' W 061°51'15353115.3
2017-Nov-15 10:30N 39°53' W 075°10'1535212557.9
2017-Nov-15 10:30N 17°08' W 061°51'15373115.7
2017-Nov-15 10:00N 39°56' W 075°08'1537230559.7
2017-Nov-15 10:00N 17°08' W 061°51'15383119.6
2017-Nov-15 09:30N 39°59' W 075°05'153827010.9
2017-Nov-15 09:27N 17°08' W 061°51'15383473.2
2017-Nov-15 09:00N 39°59' W 075°04'1538205047.9
2017-Nov-15 09:00N 17°08' W 061°51'15383124.3
2017-Nov-15 08:31N 39°59' W 075°04'1538205047.6
2017-Nov-15 08:30N 17°08' W 061°51'15383119.0
2017-Nov-15 08:00N 39°59' W 075°04'1538212932.9
2017-Nov-15 08:00N 17°08' W 061°51'15383121.1
2017-Nov-15 07:30N 39°59' W 075°05'1538212958.4
2017-Nov-15 07:30N 17°08' W 061°51'15373123.2
2017-Nov-15 07:01N 39°56' W 075°08'1537204977.3
2017-Nov-15 07:00N 17°08' W 061°51'15353113.1
2017-Nov-15 06:30N 39°53' W 075°10'1535212530.8
2017-Nov-15 06:30N 17°08' W 061°51'0 0.0
2017-Nov-15 06:00N 17°08' W 061°51'153753711.0
2017-Nov-15 05:58N 39°54' W 075°12'15373261.9
2017-Nov-15 05:30N 17°08' W 061°51'153753194.1
2017-Nov-15 05:28N 39°54' W 075°12'15373260.0
2017-Nov-15 05:00N 17°08' W 061°51'153754237.2
2017-Nov-15 04:58N 39°54' W 075°12'15373258.1
2017-Nov-15 04:30N 17°08' W 061°51'153753710.7
2017-Nov-15 04:28N 39°54' W 075°12'15373261.9
2017-Nov-15 04:00N 17°08' W 061°51'153750754.1
2017-Nov-15 03:58N 39°54' W 075°12'15373269.6
2017-Nov-15 03:30N 17°08' W 061°51'153755322.0
2017-Nov-15 03:28N 39°54' W 075°12'15373254.2
2017-Nov-15 03:00N 17°08' W 061°51'153755321.9
2017-Nov-15 02:58N 39°54' W 075°12'15373254.2
2017-Nov-15 02:30N 17°08' W 061°51'153754774.5
2017-Nov-15 02:28N 39°54' W 075°12'15373256.1
2017-Nov-15 02:00N 17°08' W 061°51'153754237.2
2017-Nov-15 01:58N 39°54' W 075°12'15373258.1
2017-Nov-15 01:30N 17°08' W 061°51'153754237.2
2017-Nov-15 01:28N 39°54' W 075°12'15373258.1
2017-Nov-15 01:00N 17°08' W 061°51'153754237.2
2017-Nov-15 00:58N 39°54' W 075°12'15373258.1
2017-Nov-15 00:30N 17°08' W 061°51'153754237.4
2017-Nov-15 00:28N 39°54' W 075°12'15373258.1
2017-Nov-15 00:00N 17°08' W 061°51'153753710.7
2017-Nov-14 23:58N 39°54' W 075°12'15373260.0
2017-Nov-14 23:30N 17°08' W 061°51'153754237.2
2017-Nov-14 23:28N 39°54' W 075°12'15373258.1
2017-Nov-14 23:00N 17°08' W 061°51'153753194.3
2017-Nov-14 22:58N 39°54' W 075°12'15373261.9
2017-Nov-14 22:30N 17°08' W 061°51'153754237.2
2017-Nov-14 22:28N 39°54' W 075°12'15373258.1
2017-Nov-14 22:00N 17°08' W 061°51'153754237.1
2017-Nov-14 21:58N 39°54' W 075°12'15373258.1
2017-Nov-14 21:30N 17°08' W 061°51'153753710.6
2017-Nov-14 21:28N 39°54' W 075°12'15373260.0
2017-Nov-14 21:00N 17°08' W 061°51'153753710.9
2017-Nov-14 20:58N 39°54' W 075°12'15373310.4
2017-Nov-14 20:30N 17°08' W 061°52'15371382932.2
2017-Nov-14 20:30N 39°54' W 075°12'0 0.0
2017-Nov-14 20:00N 39°54' W 075°12'15372765830.1
2017-Nov-14 20:00N 17°08' W 061°52'15373074.8
2017-Nov-14 19:30N 39°54' W 075°12'153759485.9
2017-Nov-14 19:29N 17°08' W 061°51'15373244.7
2017-Nov-14 19:01N 39°54' W 075°12'153758233.5
2017-Nov-14 18:59N 17°08' W 061°51'15373242.8
2017-Nov-14 18:30N 39°54' W 075°12'153758233.6
2017-Nov-14 18:29N 17°08' W 061°51'15373248.5
2017-Nov-14 18:01N 39°54' W 075°12'153757033.1
2017-Nov-14 17:59N 17°08' W 061°51'15373244.7
2017-Nov-14 17:30N 39°54' W 075°12'153758853.4
2017-Nov-14 17:29N 17°08' W 061°51'15353228.4
2017-Nov-14 17:00N 39°53' W 075°10'153562101.1
2017-Nov-14 16:59N 17°08' W 061°51'15373232.4
2017-Nov-14 16:30N 39°56' W 075°08'153762885.4
2017-Nov-14 16:29N 17°08' W 061°51'15383237.9
2017-Nov-14 16:00N 39°59' W 075°05'153861520.1
2017-Nov-14 15:59N 17°08' W 061°51'15383235.7
2017-Nov-14 15:30N 39°59' W 075°04'153862912.0
2017-Nov-14 15:29N 17°08' W 061°51'15383218.8
2017-Nov-14 15:00N 39°59' W 075°04'153868350.2
2017-Nov-14 14:59N 17°08' W 061°51'15383246.1
2017-Nov-14 14:30N 39°57' W 075°08'153858912.8
2017-Nov-14 14:29N 17°08' W 061°51'15353239.2
2017-Nov-14 14:00N 39°54' W 075°08'1535690754.8
2017-Nov-14 14:00N 17°08' W 061°51'15353074.4
2017-Nov-14 13:30N 39°52' W 075°13'153533705.6
2017-Nov-14 13:28N 17°08' W 061°51'15373391.3
2017-Nov-14 13:00N 39°51' W 075°20'153732943.5
2017-Nov-14 12:58N 17°08' W 061°51'15373390.6
2017-Nov-14 12:30N 39°48' W 075°25'3 6.1
2017-Nov-14 12:00N 39°47' W 075°28'510.1
2017-Nov-14 11:30N 39°42' W 075°31'5 9.6
2017-Nov-14 11:00N 39°38' W 075°34'4 8.4
2017-Nov-14 10:30N 39°34' W 075°33'510.5
2017-Nov-14 10:00N 39°29' W 075°34'5 9.4
2017-Nov-14 09:30N 39°25' W 075°31'5 9.8
2017-Nov-14 09:00N 39°21' W 075°26'5 9.8
2017-Nov-14 08:30N 39°17' W 075°22'5 9.5
2017-Nov-14 08:00N 39°14' W 075°18'5 9.3
2017-Nov-14 07:30N 39°10' W 075°15'5 9.9
2017-Nov-14 07:00N 39°06' W 075°12'5 9.6
2017-Nov-14 06:30N 39°01' W 075°09'5 9.7
2017-Nov-14 06:00N 38°57' W 075°07'5 8.6
2017-Nov-14 05:23N 38°52' W 075°04'3 8.9
2017-Nov-14 05:00N 38°49' W 075°02'4 8.2
2017-Nov-14 04:30N 38°49' W 074°57'5 9.4
2017-Nov-14 03:58N 38°50' W 074°51'12 9.6
2017-Nov-14 02:41N 38°60' W 074°41'3 9.8
2017-Nov-14 02:20N 39°02' W 074°38'3 9.7
2017-Nov-14 02:00N 39°04' W 074°35'5 9.3
2017-Nov-14 01:30N 39°08' W 074°31'5 9.8
2017-Nov-14 01:00N 39°11' W 074°27'9 9.8
2017-Nov-14 00:07N 39°18' W 074°19'1 9.8
2017-Nov-13 23:58N 39°19' W 074°18'9 9.8
2017-Nov-13 23:05N 39°26' W 074°11'3 8.9
2017-Nov-13 22:43N 39°29' W 074°09'3 9.7
2017-Nov-13 22:25N 39°31' W 074°07'4 9.7
2017-Nov-13 22:00N 39°35' W 074°05'59 2.1
2017-Nov-12 18:19N 40°33' W 074°15'2 5.6
2017-Nov-12 17:58N 40°35' W 074°13'2 5.3
2017-Nov-12 17:30N 40°37' W 074°12'2 3.1
2017-Nov-12 17:00N 40°38' W 074°12'3 6.4
2017-Nov-12 16:30N 40°39' W 074°07'4 7.2
2017-Nov-12 16:00N 40°40' W 074°03'0 0.3
2017-Nov-12 15:30N 40°40' W 074°03'0 0.0
2017-Nov-12 15:00N 40°40' W 074°03'0 0.0
2017-Nov-12 14:30N 40°40' W 074°03'0 0.0
2017-Nov-12 14:00N 40°40' W 074°03'0 0.0
2017-Nov-12 13:30N 40°40' W 074°03'0 0.0
2017-Nov-12 13:00N 40°40' W 074°03'0 0.0
2017-Nov-12 12:30N 40°40' W 074°03'0 0.0
2017-Nov-12 12:00N 40°40' W 074°03'0 0.1
2017-Nov-12 11:30N 40°40' W 074°03'0 0.0
2017-Nov-12 11:00N 40°40' W 074°03'0 0.2
2017-Nov-12 10:30N 40°40' W 074°03'0 0.2
2017-Nov-12 10:00N 40°40' W 074°02'0 0.1
2017-Nov-12 09:30N 40°40' W 074°02'0 0.0
2017-Nov-12 09:00N 40°40' W 074°03'0 0.0
2017-Nov-12 08:30N 40°40' W 074°03'0 0.0
2017-Nov-12 08:00N 40°40' W 074°02'0 0.0
2017-Nov-12 07:30N 40°40' W 074°02'0 0.0
2017-Nov-12 07:00N 40°40' W 074°03'0 0.1
2017-Nov-12 06:30N 40°40' W 074°03'0 0.2
2017-Nov-12 06:00N 40°40' W 074°03'0 0.2
2017-Nov-12 05:30N 40°40' W 074°03'0 0.1
2017-Nov-12 05:00N 40°40' W 074°03'0 0.1
2017-Nov-12 04:30N 40°40' W 074°03'0 0.0
2017-Nov-12 04:00N 40°40' W 074°03'0 0.0
2017-Nov-12 03:30N 40°40' W 074°03'0 0.0
2017-Nov-12 03:00N 40°40' W 074°03'0 0.0
2017-Nov-12 02:30N 40°40' W 074°03'0 0.0
2017-Nov-12 02:00N 40°40' W 074°03'0 0.0
2017-Nov-12 01:30N 40°40' W 074°03'0 0.0
2017-Nov-12 01:00N 40°40' W 074°03'0 0.0
2017-Nov-12 00:30N 40°40' W 074°03'0 0.1
2017-Nov-12 00:00N 40°40' W 074°03'0 0.0
2017-Nov-11 23:30N 40°40' W 074°03'0 0.0
2017-Nov-11 23:00N 40°40' W 074°03'0 0.0
2017-Nov-11 22:30N 40°40' W 074°03'0 0.1
2017-Nov-11 22:00N 40°40' W 074°03'0 0.3
2017-Nov-11 21:30N 40°40' W 074°03'0 0.1
2017-Nov-11 21:00N 40°40' W 074°03'0 0.0
2017-Nov-11 20:30N 40°40' W 074°03'0 0.0
2017-Nov-11 20:00N 40°40' W 074°03'0 0.0
2017-Nov-11 19:30N 40°40' W 074°03'0 0.0
2017-Nov-11 19:00N 40°40' W 074°03'0 0.0
2017-Nov-11 18:30N 40°40' W 074°03'0 0.1
2017-Nov-11 18:00N 40°40' W 074°03'0 0.0
2017-Nov-11 17:30N 40°40' W 074°03'0 0.3
2017-Nov-11 17:00N 40°40' W 074°03'0 0.1
2017-Nov-11 16:30N 40°40' W 074°03'0 0.1
2017-Nov-11 16:00N 40°40' W 074°03'0 0.1
2017-Nov-11 15:30N 40°40' W 074°03'0 0.0
2017-Nov-11 15:00N 40°40' W 074°03'0 0.0
2017-Nov-11 14:30N 40°40' W 074°03'0 0.0
2017-Nov-11 14:00N 40°40' W 074°03'0 0.0
2017-Nov-11 13:30N 40°40' W 074°03'0 0.0
2017-Nov-11 13:00N 40°40' W 074°03'0 0.0
2017-Nov-11 12:30N 40°40' W 074°03'0 0.0
2017-Nov-11 12:00N 40°40' W 074°03'0 0.0
2017-Nov-11 11:30N 40°40' W 074°03'0 0.0
2017-Nov-11 11:00N 40°40' W 074°03'0 0.0
2017-Nov-11 10:30N 40°40' W 074°03'0 0.0
2017-Nov-11 10:00N 40°40' W 074°03'0 0.1
2017-Nov-11 09:30N 40°40' W 074°03'0 0.2
2017-Nov-11 09:00N 40°40' W 074°02'0 0.3
2017-Nov-11 08:30N 40°40' W 074°03'0 0.1
2017-Nov-11 08:00N 40°40' W 074°03'0 0.1
2017-Nov-11 07:30N 40°40' W 074°03'0 0.0
2017-Nov-11 07:00N 40°40' W 074°03'0 0.0
2017-Nov-11 06:30N 40°40' W 074°03'0 0.0
2017-Nov-11 06:00N 40°40' W 074°03'0 0.1
2017-Nov-11 05:30N 40°40' W 074°02'0 0.2
2017-Nov-11 05:00N 40°40' W 074°02'0 0.2
2017-Nov-11 04:30N 40°40' W 074°03'0 0.1
2017-Nov-11 04:00N 40°40' W 074°03'0 0.1
2017-Nov-11 03:30N 40°40' W 074°03'0 0.0
2017-Nov-11 03:00N 40°40' W 074°03'0 0.0
2017-Nov-11 02:30N 40°40' W 074°03'0 0.1
2017-Nov-11 02:00N 40°40' W 074°03'0 0.1
2017-Nov-11 01:30N 40°40' W 074°03'0 0.0
2017-Nov-11 01:00N 40°40' W 074°03'0 0.0
2017-Nov-11 00:30N 40°40' W 074°03'0 0.0
2017-Nov-11 00:00N 40°40' W 074°03'0 0.0
2017-Nov-10 23:27N 40°40' W 074°03'0 0.0
2017-Nov-10 23:00N 40°40' W 074°03'0 0.9
2017-Nov-10 22:30N 40°39' W 074°03'3 5.6
2017-Nov-10 22:00N 40°36' W 074°03'2 3.5
2017-Nov-10 21:30N 40°35' W 074°02'1 1.6
2017-Nov-10 21:00N 40°34' W 074°02'2 4.3
2017-Nov-10 20:30N 40°32' W 074°01'3 5.0
2017-Nov-10 20:00N 40°31' W 073°58'3 5.2
2017-Nov-10 19:28N 40°29' W 073°55'41 5.9
2017-Nov-10 12:32N 39°48' W 073°58'0 6.2
2017-Nov-10 12:30N 39°48' W 073°58'4 6.4
2017-Nov-10 11:55N 39°45' W 073°59'3 6.4
2017-Nov-10 11:30N 39°42' W 074°00'3 6.5
2017-Nov-10 10:58N 39°39' W 074°02'3 6.6
2017-Nov-10 10:30N 39°36' W 074°04'4 6.7
2017-Nov-10 09:54N 39°32' W 074°06'37 6.6
2017-Nov-10 04:17N 39°03' W 074°36'3 6.2
2017-Nov-10 03:51N 39°01' W 074°38'5 6.0
2017-Nov-10 02:57N 38°57' W 074°43'3 6.0
2017-Nov-10 02:28N 38°55' W 074°46'  
Track history (hours):
 
Tides and Currents Weather Stations Pressure Air Temp Water Temp Dewpoint Dewpoint Depression Visibility Wind Speed Wind Dir Waves Ship Positions

Anacostia

Owner: Vane Line Bunkering, Inc., Philadelphia, PA. More information available from US FCC via Universal Licensing System and Coast Guard Vessel Documentation Center.

Last reported at 2017-Nov-20 00:31 UTC. Time now 2017-Nov-20 07:58 UTC.
Position N 39°51' W 075°18'.

Length 33 m; draft 4.2 m.

Type: Towing. MMSI: 367371820.

Date/timePositionNaut miles runAvg speedWind from/ knotsBaromVisibWave heightAir tempDewpointWater temp
2017-Nov-20 00:31N 39°51' W 075°18'153776842.0
2017-Nov-20 00:29N 17°08' W 061°51'15383201.3
2017-Nov-20 00:00N 39°50' W 075°22'153877958.1
2017-Nov-19 23:59N 17°08' W 061°51'15373202.7
2017-Nov-19 23:31N 39°48' W 075°25'153776864.2
2017-Nov-19 23:29N 17°08' W 061°51'15373202.0
2017-Nov-19 23:01N 39°46' W 075°28'153776847.3
2017-Nov-19 22:59N 17°08' W 061°51'15363199.2
2017-Nov-19 22:31N 39°44' W 075°30'153676779.6
2017-Nov-19 22:29N 17°08' W 061°51'15343193.3
2017-Nov-19 22:00N 39°41' W 075°31'153477763.8
2017-Nov-19 21:59N 17°08' W 061°51'15333192.9
2017-Nov-19 21:31N 39°39' W 075°33'153376628.5
2017-Nov-19 21:29N 17°08' W 061°51'15313189.7
2017-Nov-19 21:01N 39°37' W 075°34'153176552.2
2017-Nov-19 20:59N 17°08' W 061°51'15283184.1
2017-Nov-19 20:31N 39°34' W 075°33'152876418.3
2017-Nov-19 20:29N 17°08' W 061°51'15303188.5
2017-Nov-19 20:01N 39°35' W 075°36'153076523.8
2017-Nov-19 19:59N 17°08' W 061°51'15303116.4
2017-Nov-19 19:30N 39°35' W 075°36'1530172178.5
2017-Nov-19 19:29N 17°08' W 061°51'15303118.1
2017-Nov-19 19:00N 39°35' W 075°36'1530166960.7
2017-Nov-19 18:59N 17°08' W 061°51'15303118.1
2017-Nov-19 18:30N 39°35' W 075°36'1530162049.6
2017-Nov-19 18:29N 17°08' W 061°51'15303118.1
2017-Nov-19 18:00N 39°35' W 075°36'1530172178.5
2017-Nov-19 17:59N 17°08' W 061°51'15303116.4
2017-Nov-19 17:30N 39°35' W 075°36'1530166961.0
2017-Nov-19 17:29N 17°08' W 061°51'15303118.1
2017-Nov-19 17:00N 39°35' W 075°36'1530172178.5
2017-Nov-19 16:59N 17°08' W 061°51'15303118.1
2017-Nov-19 16:30N 39°35' W 075°36'1530166960.7
2017-Nov-19 16:29N 17°08' W 061°51'15303118.1
2017-Nov-19 16:00N 39°35' W 075°36'1530162050.4
2017-Nov-19 15:59N 17°08' W 061°51'15303118.1
2017-Nov-19 15:30N 39°35' W 075°36'1530166961.0
2017-Nov-19 15:29N 17°08' W 061°51'15303116.4
2017-Nov-19 15:00N 39°35' W 075°36'1530172179.1
2017-Nov-19 14:59N 17°08' W 061°51'15303119.9
2017-Nov-19 14:30N 39°35' W 075°36'1530162050.4
2017-Nov-19 14:29N 17°08' W 061°51'15303118.1
2017-Nov-19 14:00N 39°35' W 075°36'1530166961.0
2017-Nov-19 13:59N 17°08' W 061°51'15303114.6
2017-Nov-19 13:30N 39°35' W 075°36'1530177733.3
2017-Nov-19 13:29N 17°08' W 061°51'15303116.4
2017-Nov-19 13:00N 39°35' W 075°36'1530172179.1
2017-Nov-19 12:59N 17°08' W 061°51'15303112.8
2017-Nov-19 12:30N 39°35' W 075°36'1530183657.1
2017-Nov-19 12:29N 17°08' W 061°51'15303118.1
2017-Nov-19 12:00N 39°35' W 075°36'1530166961.0
2017-Nov-19 11:59N 17°08' W 061°51'15303112.8
2017-Nov-19 11:30N 39°35' W 075°36'1530183657.7
2017-Nov-19 11:29N 17°08' W 061°51'15303114.6
2017-Nov-19 11:00N 39°35' W 075°36'1530177732.7
2017-Nov-19 10:59N 17°08' W 061°51'15303114.6
2017-Nov-19 10:30N 39°35' W 075°36'1530177732.4
2017-Nov-19 10:29N 17°08' W 061°51'15303114.6
2017-Nov-19 10:00N 39°35' W 075°36'1530177733.3
2017-Nov-19 09:59N 17°08' W 061°51'15303112.8
2017-Nov-19 09:30N 39°35' W 075°36'1530183657.1
2017-Nov-19 09:29N 17°08' W 061°51'15303114.6
2017-Nov-19 09:00N 39°35' W 075°36'1530177733.9
2017-Nov-19 08:59N 17°08' W 061°51'15303112.8
2017-Nov-19 08:30N 39°35' W 075°36'1530183657.7
2017-Nov-19 08:29N 17°08' W 061°51'15303114.6
2017-Nov-19 08:00N 39°35' W 075°36'1530177732.7
2017-Nov-19 07:59N 17°08' W 061°51'15303114.6
2017-Nov-19 07:30N 39°35' W 075°36'1530177732.7
2017-Nov-19 07:29N 17°08' W 061°51'15303112.8
2017-Nov-19 07:00N 39°35' W 075°36'1530183657.1
2017-Nov-19 06:59N 17°08' W 061°51'15303118.1
2017-Nov-19 06:30N 39°35' W 075°36'1530166961.3
2017-Nov-19 06:29N 17°08' W 061°51'15303114.6
2017-Nov-19 06:00N 39°35' W 075°36'1530172178.5
2017-Nov-19 05:59N 17°08' W 061°51'15303116.4
2017-Nov-19 05:30N 39°35' W 075°36'1530177733.6
2017-Nov-19 05:29N 17°08' W 061°51'0 0.0
2017-Nov-19 04:59N 17°08' W 061°51'153037227.9
2017-Nov-19 04:57N 39°35' W 075°36'0 0.0
2017-Nov-19 04:30N 39°35' W 075°36'1530172179.1
2017-Nov-19 04:29N 17°08' W 061°51'15303118.1
2017-Nov-19 04:00N 39°35' W 075°36'1530166961.0
2017-Nov-19 03:59N 17°08' W 061°51'15303118.1
2017-Nov-19 03:30N 39°35' W 075°36'1530166960.7
2017-Nov-19 03:29N 17°08' W 061°51'15303116.3
2017-Nov-19 03:00N 39°35' W 075°36'1530172179.1
2017-Nov-19 02:59N 17°08' W 061°51'15303116.4
2017-Nov-19 02:30N 39°35' W 075°36'1530172179.1
2017-Nov-19 02:29N 17°08' W 061°51'15303118.1
2017-Nov-19 02:00N 39°35' W 075°36'1530166961.0
2017-Nov-19 01:59N 17°08' W 061°51'15303116.4
2017-Nov-19 01:30N 39°35' W 075°36'153014055.4
2017-Nov-19 01:23N 17°08' W 061°51'15303913.2
2017-Nov-19 01:00N 39°35' W 075°36'1530172179.1
2017-Nov-19 00:59N 17°08' W 061°51'15303114.6
2017-Nov-19 00:30N 39°35' W 075°36'1530177732.7
2017-Nov-19 00:29N 17°08' W 061°51'15303116.4
2017-Nov-19 00:00N 39°35' W 075°36'1530172178.5
2017-Nov-18 23:59N 17°08' W 061°51'15303116.4
2017-Nov-18 23:30N 39°35' W 075°36'1530172178.2
2017-Nov-18 23:29N 17°08' W 061°51'15303114.6
2017-Nov-18 23:00N 39°35' W 075°36'1530177732.4
2017-Nov-18 22:59N 17°08' W 061°51'15303116.3
2017-Nov-18 22:30N 39°35' W 075°36'1530172178.2
2017-Nov-18 22:29N 17°08' W 061°51'15303112.8
2017-Nov-18 22:00N 39°35' W 075°36'1530183657.7
2017-Nov-18 21:59N 17°08' W 061°51'15303114.6
2017-Nov-18 21:30N 39°35' W 075°36'1530177732.7
2017-Nov-18 21:29N 17°08' W 061°51'15303114.6
2017-Nov-18 21:00N 39°35' W 075°36'1530177732.7
2017-Nov-18 20:59N 17°08' W 061°51'15303112.8
2017-Nov-18 20:30N 39°35' W 075°36'1530183657.4
2017-Nov-18 20:29N 17°08' W 061°51'15303112.8
2017-Nov-18 20:00N 39°35' W 075°36'1530177732.7
2017-Nov-18 19:59N 17°08' W 061°51'0 0.0
2017-Nov-18 19:30N 17°08' W 061°51'1530157419.8
2017-Nov-18 19:30N 39°35' W 075°36'15303120.4
2017-Nov-18 19:00N 17°08' W 061°52'1530161983.1
2017-Nov-18 19:00N 39°35' W 075°36'0 0.0
2017-Nov-18 18:30N 39°35' W 075°36'152980962.3
2017-Nov-18 18:29N 17°08' W 061°53'15293184.2
2017-Nov-18 18:00N 39°35' W 075°36'152977541.4
2017-Nov-18 17:59N 17°08' W 061°53'15293182.3
2017-Nov-18 17:30N 39°35' W 075°36'152978649.0
2017-Nov-18 17:29N 17°08' W 061°53'15293175.0
2017-Nov-18 17:00N 39°35' W 075°36'152983415.3
2017-Nov-18 16:59N 17°08' W 061°53'15293182.3
2017-Nov-18 16:30N 39°35' W 075°36'152977541.5
2017-Nov-18 16:29N 17°08' W 061°53'15293176.8
2017-Nov-18 16:00N 39°35' W 075°36'152982170.7
2017-Nov-18 15:59N 17°08' W 061°53'15293176.8
2017-Nov-18 15:30N 39°35' W 075°36'152982170.3
2017-Nov-18 15:29N 17°08' W 061°53'15293175.0
2017-Nov-18 15:00N 39°35' W 075°36'152983415.8
2017-Nov-18 14:59N 17°08' W 061°53'15293171.3
2017-Nov-18 14:30N 39°35' W 075°36'152987388.0
2017-Nov-18 14:29N 17°08' W 061°53'15293173.2
2017-Nov-18 14:00N 39°35' W 075°36'152922379.8
2017-Nov-18 13:56N 17°08' W 061°53'15293538.2
2017-Nov-18 13:30N 39°35' W 075°36'152986022.6
2017-Nov-18 13:29N 17°08' W 061°53'15293176.8
2017-Nov-18 13:00N 39°35' W 075°36'152982170.6
2017-Nov-18 12:59N 17°08' W 061°53'15293175.0
2017-Nov-18 12:30N 39°35' W 075°36'152983415.9
2017-Nov-18 12:29N 17°08' W 061°53'15293173.2
2017-Nov-18 12:00N 39°35' W 075°36'152984699.0
2017-Nov-18 11:59N 17°08' W 061°53'15293173.2
2017-Nov-18 11:30N 39°35' W 075°36'152984699.0
2017-Nov-18 11:29N 17°08' W 061°53'15293173.2
2017-Nov-18 11:00N 39°35' W 075°36'152984699.2
2017-Nov-18 10:59N 17°08' W 061°53'15293173.2
2017-Nov-18 10:30N 39°35' W 075°36'152984699.2
2017-Nov-18 10:29N 17°08' W 061°53'15293175.0
2017-Nov-18 10:00N 39°35' W 075°36'152983415.7
2017-Nov-18 09:59N 17°08' W 061°53'15292630.4
2017-Nov-18 09:24N 39°35' W 075°36'152982171.4
2017-Nov-18 09:23N 17°08' W 061°53'15294006.9
2017-Nov-18 09:00N 39°35' W 075°36'152983416.0
2017-Nov-18 08:59N 17°08' W 061°53'15293184.2
2017-Nov-18 08:30N 39°35' W 075°36'152977541.8
2017-Nov-18 08:29N 17°08' W 061°53'15293175.0
2017-Nov-18 08:00N 39°35' W 075°36'152982171.0
2017-Nov-18 07:59N 17°08' W 061°53'15293175.0
2017-Nov-18 07:30N 39°35' W 075°36'152984699.4
2017-Nov-18 07:29N 17°08' W 061°53'15293176.8
2017-Nov-18 07:00N 39°35' W 075°36'152980962.9
2017-Nov-18 06:59N 17°08' W 061°53'15293175.0
2017-Nov-18 06:30N 39°35' W 075°36'152922471.2
2017-Nov-18 06:26N 17°08' W 061°53'15293549.6
2017-Nov-18 06:00N 39°35' W 075°36'152922021.8
2017-Nov-18 05:56N 17°08' W 061°53'15293556.5
2017-Nov-18 05:30N 39°35' W 075°36'152976464.7
2017-Nov-18 05:29N 17°08' W 061°53'15293176.8
2017-Nov-18 05:00N 39°35' W 075°36'152983416.4
2017-Nov-18 04:59N 17°08' W 061°53'15293175.0
2017-Nov-18 04:30N 39°35' W 075°36'152983415.8
2017-Nov-18 04:29N 17°08' W 061°53'15293175.0
2017-Nov-18 04:00N 39°35' W 075°36'152982170.9
2017-Nov-18 03:59N 17°08' W 061°53'15293184.2
2017-Nov-18 03:30N 39°35' W 075°36'152977541.8
2017-Nov-18 03:29N 17°08' W 061°53'15293176.8
2017-Nov-18 03:00N 39°35' W 075°36'152982171.4
2017-Nov-18 02:59N 17°08' W 061°53'15293176.9
2017-Nov-18 02:30N 39°35' W 075°36'152982171.1
2017-Nov-18 02:29N 17°08' W 061°53'15293176.8
2017-Nov-18 02:00N 39°35' W 075°36'152982171.2
2017-Nov-18 01:59N 17°08' W 061°53'15293184.2
2017-Nov-18 01:30N 39°35' W 075°36'152977542.0
2017-Nov-18 01:29N 17°08' W 061°53'15293259.6
2017-Nov-18 01:01N 39°35' W 075°36'152949599.1
2017-Nov-18 00:59N 17°08' W 061°53'15293259.6
2017-Nov-18 00:31N 39°35' W 075°36'152949599.3
2017-Nov-18 00:29N 17°08' W 061°53'15293257.7
2017-Nov-18 00:00N 39°35' W 075°36'152950049.9
2017-Nov-17 23:59N 17°08' W 061°53'15293251.7
2017-Nov-17 23:30N 39°35' W 075°36'152951449.3
2017-Nov-17 23:29N 17°08' W 061°53'15293253.6
2017-Nov-17 23:00N 39°35' W 075°36'152950973.3
2017-Nov-17 22:59N 17°08' W 061°53'15283251.6
2017-Nov-17 22:30N 39°35' W 075°34'152850942.3
2017-Nov-17 22:29N 17°08' W 061°53'15293255.1
2017-Nov-17 22:00N 39°36' W 075°34'152950498.1
2017-Nov-17 21:59N 17°08' W 061°53'15323262.7
2017-Nov-17 21:30N 39°40' W 075°32'153250126.6
2017-Nov-17 21:29N 17°08' W 061°53'15343266.6
2017-Nov-17 21:00N 39°44' W 075°30'153450676.9
2017-Nov-17 20:59N 17°08' W 061°53'15363268.2
2017-Nov-17 20:30N 39°47' W 075°27'153651202.1
2017-Nov-17 20:29N 17°08' W 061°53'15363272.6
2017-Nov-17 20:00N 39°50' W 075°22'153650279.1
2017-Nov-17 19:59N 17°08' W 061°53'15353267.6
2017-Nov-17 19:30N 39°51' W 075°17'153550692.5
2017-Nov-17 19:29N 17°08' W 061°53'15353272.7
2017-Nov-17 19:01N 39°51' W 075°16'153549323.6
2017-Nov-17 18:59N 17°08' W 061°53'15353266.9
2017-Nov-17 18:30N 39°53' W 075°12'153550222.0
2017-Nov-17 18:29N 17°08' W 061°53'1 1.3
2017-Nov-17 18:00N 17°08' W 061°52'1536502751.1
2017-Nov-17 18:00N 39°54' W 075°12'0 0.0
2017-Nov-17 17:30N 39°54' W 075°12'153735027.6
2017-Nov-17 17:28N 17°07' W 061°51'15373368.5
2017-Nov-17 17:00N 39°54' W 075°12'153735250.8
2017-Nov-17 16:58N 17°07' W 061°51'15373370.5
2017-Nov-17 16:30N 39°54' W 075°12'153735250.9
2017-Nov-17 16:28N 17°07' W 061°51'15373364.4
2017-Nov-17 16:00N 39°54' W 075°12'153735477.0
2017-Nov-17 15:58N 17°07' W 061°51'15373368.5
2017-Nov-17 15:30N 39°54' W 075°12'153735476.8
2017-Nov-17 15:28N 17°07' W 061°51'15373368.5
2017-Nov-17 15:00N 39°54' W 075°12'153735027.9
2017-Nov-17 14:58N 17°07' W 061°51'0 0.4
2017-Nov-17 14:30N 17°07' W 061°51'1537395286.5
2017-Nov-17 14:30N 39°54' W 075°12'15373095.0
2017-Nov-17 14:00N 17°07' W 061°51'1537503085.9
2017-Nov-17 14:00N 39°54' W 075°12'0 0.0
2017-Nov-17 13:30N 39°54' W 075°12'1536162589.7
2017-Nov-17 13:30N 17°08' W 061°53'15363126.7
2017-Nov-17 13:00N 39°54' W 075°12'1536172749.3
2017-Nov-17 13:00N 17°08' W 061°53'15363126.7
2017-Nov-17 12:30N 39°54' W 075°12'1536172749.6
2017-Nov-17 12:30N 17°08' W 061°53'15363126.7
2017-Nov-17 12:00N 39°54' W 075°12'1536172749.9
2017-Nov-17 12:00N 17°08' W 061°53'15363130.2
2017-Nov-17 11:30N 39°54' W 075°12'1536162588.0
2017-Nov-17 11:30N 17°08' W 061°53'15363128.5
2017-Nov-17 11:00N 39°54' W 075°12'1536167515.6
2017-Nov-17 11:00N 17°08' W 061°53'15363128.5
2017-Nov-17 10:30N 39°54' W 075°12'1536167515.1
2017-Nov-17 10:30N 17°08' W 061°53'15363128.5
2017-Nov-17 10:00N 39°54' W 075°12'1536167514.4
2017-Nov-17 10:00N 17°08' W 061°53'15363128.5
2017-Nov-17 09:30N 39°54' W 075°12'1536167516.0
2017-Nov-17 09:30N 17°08' W 061°53'15363128.5
2017-Nov-17 09:00N 39°54' W 075°12'1536167515.8
2017-Nov-17 09:00N 17°08' W 061°53'15363124.9
2017-Nov-17 08:30N 39°54' W 075°12'1536178324.7
2017-Nov-17 08:30N 17°08' W 061°53'15363121.4
2017-Nov-17 08:00N 39°54' W 075°12'1536190622.0
2017-Nov-17 08:00N 17°08' W 061°53'15363126.7
2017-Nov-17 07:30N 39°54' W 075°12'1536172750.0
2017-Nov-17 07:30N 17°08' W 061°53'15363126.7
2017-Nov-17 07:00N 39°54' W 075°12'1536172752.0
2017-Nov-17 07:00N 17°08' W 061°53'15363126.7
2017-Nov-17 06:30N 39°54' W 075°12'1536172752.0
2017-Nov-17 06:30N 17°08' W 061°53'15363126.7
2017-Nov-17 06:00N 39°54' W 075°12'1536167517.6
2017-Nov-17 06:00N 17°08' W 061°53'15363130.3
2017-Nov-17 05:30N 39°54' W 075°12'1536162590.1
2017-Nov-17 05:30N 17°08' W 061°53'15363128.4
2017-Nov-17 05:00N 39°54' W 075°12'1536167512.0
2017-Nov-17 05:00N 17°08' W 061°53'15363093.4
2017-Nov-17 04:30N 39°54' W 075°12'1536460652.3
2017-Nov-17 04:30N 17°08' W 061°53'15363095.1
2017-Nov-17 04:00N 39°54' W 075°12'1536394848.3
2017-Nov-17 04:00N 17°08' W 061°53'15363095.1
2017-Nov-17 03:30N 39°54' W 075°12'1536368526.2
2017-Nov-17 03:30N 17°08' W 061°53'15343147.6
2017-Nov-17 03:00N 39°52' W 075°12'153424551.4
2017-Nov-17 02:57N 17°08' W 061°53'0 0.0
2017-Nov-17 02:30N 17°08' W 061°53'1535110485.1
2017-Nov-17 02:29N 39°51' W 075°16'1 1.6
2017-Nov-17 02:00N 39°51' W 075°17'1535117571.0
2017-Nov-17 02:00N 17°08' W 061°53'15363154.6
2017-Nov-17 01:30N 39°49' W 075°23'1536117660.5
2017-Nov-17 01:30N 17°08' W 061°53'15363153.6
2017-Nov-17 01:00N 39°46' W 075°28'1536117621.1
2017-Nov-17 01:00N 17°08' W 061°53'15333149.5
2017-Nov-17 00:30N 39°42' W 075°31'1533114956.9
2017-Nov-17 00:30N 17°08' W 061°53'15313149.4
2017-Nov-17 00:01N 39°38' W 075°34'1531110227.4
2017-Nov-17 00:00N 17°08' W 061°53'15273143.5
2017-Nov-16 23:31N 39°34' W 075°33'1527107803.6
2017-Nov-16 23:30N 17°08' W 061°53'15293087.7
2017-Nov-16 23:00N 39°35' W 075°36'1529323841.1
2017-Nov-16 23:00N 17°08' W 061°53'15293087.7
2017-Nov-16 22:30N 39°35' W 075°36'1529323839.0
2017-Nov-16 22:30N 17°08' W 061°53'0 0.0
2017-Nov-16 22:00N 17°08' W 061°53'15291835039.0
2017-Nov-16 22:00N 39°35' W 075°36'15293063.5
2017-Nov-16 21:30N 17°08' W 061°53'15292752559.3
2017-Nov-16 21:30N 39°35' W 075°36'15293060.1
2017-Nov-16 21:00N 17°08' W 061°53'15291835038.5
2017-Nov-16 21:00N 39°35' W 075°36'15293065.4
2017-Nov-16 20:30N 17°08' W 061°53'15291835130.8
2017-Nov-16 20:30N 39°35' W 075°36'0 0.0
2017-Nov-16 20:00N 39°35' W 075°36'1529393118.5
2017-Nov-16 19:59N 17°09' W 061°52'15293083.3
2017-Nov-16 19:30N 39°35' W 075°36'1529343979.4
2017-Nov-16 19:29N 17°09' W 061°52'15293083.3
2017-Nov-16 19:00N 39°35' W 075°36'1529393116.5
2017-Nov-16 18:59N 17°09' W 061°52'15293083.3
2017-Nov-16 18:30N 39°35' W 075°36'1529366909.3
2017-Nov-16 18:29N 17°09' W 061°52'15293085.0
2017-Nov-16 18:00N 39°35' W 075°36'1529343976.9
2017-Nov-16 17:59N 17°09' W 061°52'15293083.3
2017-Nov-16 17:30N 39°35' W 075°36'1529343976.9
2017-Nov-16 17:29N 17°09' W 061°52'15293085.0
2017-Nov-16 17:00N 39°35' W 075°36'1529343977.5
2017-Nov-16 16:59N 17°09' W 061°52'15293085.0
2017-Nov-16 16:30N 39°35' W 075°36'1529366910.0
2017-Nov-16 16:29N 17°09' W 061°52'15293081.5
2017-Nov-16 16:00N 39°35' W 075°36'1529366907.4
2017-Nov-16 15:59N 17°09' W 061°52'15293086.7
2017-Nov-16 15:30N 39°35' W 075°36'1529323743.5
2017-Nov-16 15:29N 17°09' W 061°52'15293085.0
2017-Nov-16 15:00N 39°35' W 075°36'1529343978.1
2017-Nov-16 14:59N 17°09' W 061°52'15293085.0
2017-Nov-16 14:30N 39°35' W 075°36'1529343977.5
2017-Nov-16 14:29N 17°09' W 061°52'0 0.0
2017-Nov-16 13:59N 17°09' W 061°52'152933355.5
2017-Nov-16 13:57N 39°35' W 075°36'0 0.0
2017-Nov-16 13:30N 39°35' W 075°36'1529366910.6
2017-Nov-16 13:29N 17°09' W 061°52'15293081.6
2017-Nov-16 13:00N 39°35' W 075°36'1529393118.5
2017-Nov-16 12:59N 17°09' W 061°52'15293079.8
2017-Nov-16 12:30N 39°35' W 075°36'1529423358.4
2017-Nov-16 12:29N 17°09' W 061°52'0 0.4
2017-Nov-16 12:00N 17°09' W 061°52'1529117098.6
2017-Nov-16 12:00N 39°35' W 075°36'0 0.0
2017-Nov-16 11:30N 39°35' W 075°36'15292752541.3
2017-Nov-16 11:30N 17°08' W 061°53'15293061.8
2017-Nov-16 11:00N 39°35' W 075°36'15291835025.1
2017-Nov-16 11:00N 17°08' W 061°53'15293065.2
2017-Nov-16 10:30N 39°35' W 075°36'15291376273.7
2017-Nov-16 10:30N 17°08' W 061°53'15293063.5
2017-Nov-16 10:00N 39°35' W 075°36'15291835034.6
2017-Nov-16 10:00N 17°08' W 061°53'15293065.2
2017-Nov-16 09:30N 39°35' W 075°36'15291835041.7
2017-Nov-16 09:30N 17°08' W 061°53'15293061.8
2017-Nov-16 09:00N 39°35' W 075°36'15291376285.9
2017-Nov-16 09:00N 17°08' W 061°53'0 0.2
2017-Nov-16 08:30N 17°08' W 061°53'1529117136.2
2017-Nov-16 08:30N 39°35' W 075°36'15303144.7
2017-Nov-16 08:00N 17°08' W 061°51'1530112439.6
2017-Nov-16 08:00N 39°35' W 075°36'15303111.0
2017-Nov-16 07:30N 17°08' W 061°51'1530204056.3
2017-Nov-16 07:30N 39°35' W 075°36'15303107.5
2017-Nov-16 07:00N 17°08' W 061°51'1530204056.6
2017-Nov-16 07:00N 39°35' W 075°36'15303107.5
2017-Nov-16 06:30N 17°08' W 061°51'1530204056.3
2017-Nov-16 06:30N 39°35' W 075°36'15303105.7
2017-Nov-16 06:00N 17°08' W 061°51'1530196768.9
2017-Nov-16 06:00N 39°35' W 075°36'15303109.2
2017-Nov-16 05:30N 17°08' W 061°51'1530211905.3
2017-Nov-16 05:30N 39°35' W 075°36'15303105.7
2017-Nov-16 05:00N 17°08' W 061°51'1530204056.3
2017-Nov-16 05:00N 39°35' W 075°36'15303107.5
2017-Nov-16 04:30N 17°08' W 061°51'1530211905.4
2017-Nov-16 04:30N 39°35' W 075°36'15303105.7
2017-Nov-16 04:00N 17°08' W 061°51'1530204057.0
2017-Nov-16 04:00N 39°35' W 075°36'15303107.5
2017-Nov-16 03:30N 17°08' W 061°51'153026488.3
2017-Nov-16 03:27N 39°35' W 075°36'15303460.8
2017-Nov-16 03:00N 17°08' W 061°51'1530204057.4
2017-Nov-16 03:00N 39°35' W 075°36'15303107.5
2017-Nov-16 02:30N 17°08' W 061°51'1530204057.3
2017-Nov-16 02:30N 39°35' W 075°36'15303107.5
2017-Nov-16 02:00N 17°08' W 061°51'1530196768.9
2017-Nov-16 02:00N 39°35' W 075°36'15303109.2
2017-Nov-16 01:30N 17°08' W 061°51'153026616.1
2017-Nov-16 01:27N 39°35' W 075°36'15303458.6
2017-Nov-16 01:00N 17°08' W 061°51'1530196769.6
2017-Nov-16 01:00N 39°35' W 075°36'15303109.2
2017-Nov-16 00:30N 17°08' W 061°51'1530211904.6
2017-Nov-16 00:30N 39°35' W 075°36'15303105.7
2017-Nov-16 00:00N 17°08' W 061°51'1530204057.0
2017-Nov-16 00:00N 39°35' W 075°36'15303107.5
2017-Nov-15 23:30N 17°08' W 061°51'1530189983.5
2017-Nov-15 23:30N 39°35' W 075°36'15303111.0
2017-Nov-15 23:00N 17°08' W 061°51'1530204056.0
2017-Nov-15 23:00N 39°35' W 075°36'15303107.4
2017-Nov-15 22:30N 17°08' W 061°51'1530189983.2
2017-Nov-15 22:30N 39°35' W 075°36'15303111.0
2017-Nov-15 22:00N 17°08' W 061°51'1530196769.3
2017-Nov-15 22:00N 39°35' W 075°36'15303109.2
2017-Nov-15 21:30N 17°08' W 061°51'1530189984.5
2017-Nov-15 21:30N 39°35' W 075°36'15303111.0
2017-Nov-15 21:00N 17°08' W 061°51'1530211905.0
2017-Nov-15 21:00N 39°35' W 075°36'15303105.7
2017-Nov-15 20:30N 17°08' W 061°51'1530189984.1
2017-Nov-15 20:30N 39°35' W 075°36'0 0.6
2017-Nov-15 20:00N 39°35' W 075°35'1530275426.8
2017-Nov-15 20:00N 17°08' W 061°51'15283087.8
2017-Nov-15 19:30N 39°33' W 075°33'1528289439.8
2017-Nov-15 19:30N 17°08' W 061°51'15273087.0
2017-Nov-15 19:00N 39°33' W 075°33'1527289367.2
2017-Nov-15 19:00N 17°08' W 061°51'15273088.8
2017-Nov-15 18:30N 39°33' W 075°33'1527261807.5
2017-Nov-15 18:30N 17°08' W 061°51'15273088.8
2017-Nov-15 18:00N 39°33' W 075°33'1527274900.6
2017-Nov-15 18:00N 17°08' W 061°51'15273088.8
2017-Nov-15 17:30N 39°33' W 075°33'1527274898.3
2017-Nov-15 17:30N 17°08' W 061°51'15273087.1
2017-Nov-15 17:00N 39°33' W 075°33'1527305446.6
2017-Nov-15 17:00N 17°08' W 061°51'15273085.4
2017-Nov-15 16:30N 39°33' W 075°33'1527289374.8
2017-Nov-15 16:30N 17°08' W 061°51'15273087.2
2017-Nov-15 16:00N 39°33' W 075°33'1527289387.3
2017-Nov-15 16:00N 17°08' W 061°51'15273089.2
2017-Nov-15 15:30N 39°33' W 075°33'1527274937.8
2017-Nov-15 15:30N 17°08' W 061°51'15293091.1
2017-Nov-15 15:00N 39°35' W 075°33'1529289749.0
2017-Nov-15 15:00N 17°08' W 061°51'15323097.1
2017-Nov-15 14:30N 39°38' W 075°34'1532290316.9
2017-Nov-15 14:30N 17°08' W 061°51'15333104.3
2017-Nov-15 14:00N 39°40' W 075°32'1533262827.4
2017-Nov-15 14:00N 17°08' W 061°51'15353102.7
2017-Nov-15 13:30N 39°43' W 075°30'1535276297.7
2017-Nov-15 13:30N 17°08' W 061°51'15373123.5
2017-Nov-15 13:01N 39°46' W 075°29'1537190748.0
2017-Nov-15 13:00N 17°08' W 061°51'15373089.9
2017-Nov-15 12:30N 39°48' W 075°26'1537614889.4
2017-Nov-15 12:30N 17°08' W 061°51'15373119.8
2017-Nov-15 12:00N 39°49' W 075°23'1537212864.4
2017-Nov-15 12:00N 17°08' W 061°51'15373121.6
2017-Nov-15 11:31N 39°51' W 075°20'1537204982.8
2017-Nov-15 11:30N 17°08' W 061°51'15363116.3
2017-Nov-15 11:00N 39°51' W 075°15'1536212626.8
2017-Nov-15 11:00N 17°08' W 061°51'15353115.3
2017-Nov-15 10:30N 39°53' W 075°10'1535212557.9
2017-Nov-15 10:30N 17°08' W 061°51'15373115.7
2017-Nov-15 10:00N 39°56' W 075°08'1537230559.7
2017-Nov-15 10:00N 17°08' W 061°51'15383119.6
2017-Nov-15 09:30N 39°59' W 075°05'153827010.9
2017-Nov-15 09:27N 17°08' W 061°51'15383473.2
2017-Nov-15 09:00N 39°59' W 075°04'1538205047.9
2017-Nov-15 09:00N 17°08' W 061°51'15383124.3
2017-Nov-15 08:31N 39°59' W 075°04'1538205047.6
2017-Nov-15 08:30N 17°08' W 061°51'15383119.0
2017-Nov-15 08:00N 39°59' W 075°04'1538212932.9
2017-Nov-15 08:00N 17°08' W 061°51'15383121.1
2017-Nov-15 07:30N 39°59' W 075°05'1538212958.4
2017-Nov-15 07:30N 17°08' W 061°51'15373123.2
2017-Nov-15 07:01N 39°56' W 075°08'1537204977.3
2017-Nov-15 07:00N 17°08' W 061°51'15353113.1
2017-Nov-15 06:30N 39°53' W 075°10'1535212530.8
2017-Nov-15 06:30N 17°08' W 061°51'0 0.0
2017-Nov-15 06:00N 17°08' W 061°51'153753711.0
2017-Nov-15 05:58N 39°54' W 075°12'15373261.9
2017-Nov-15 05:30N 17°08' W 061°51'153753194.1
2017-Nov-15 05:28N 39°54' W 075°12'15373260.0
2017-Nov-15 05:00N 17°08' W 061°51'153754237.2
2017-Nov-15 04:58N 39°54' W 075°12'15373258.1
2017-Nov-15 04:30N 17°08' W 061°51'153753710.7
2017-Nov-15 04:28N 39°54' W 075°12'15373261.9
2017-Nov-15 04:00N 17°08' W 061°51'153750754.1
2017-Nov-15 03:58N 39°54' W 075°12'15373269.6
2017-Nov-15 03:30N 17°08' W 061°51'153755322.0
2017-Nov-15 03:28N 39°54' W 075°12'15373254.2
2017-Nov-15 03:00N 17°08' W 061°51'153755321.9
2017-Nov-15 02:58N 39°54' W 075°12'15373254.2
2017-Nov-15 02:30N 17°08' W 061°51'153754774.5
2017-Nov-15 02:28N 39°54' W 075°12'15373256.1
2017-Nov-15 02:00N 17°08' W 061°51'153754237.2
2017-Nov-15 01:58N 39°54' W 075°12'15373258.1
2017-Nov-15 01:30N 17°08' W 061°51'153754237.2
2017-Nov-15 01:28N 39°54' W 075°12'15373258.1
2017-Nov-15 01:00N 17°08' W 061°51'153754237.2
2017-Nov-15 00:58N 39°54' W 075°12'15373258.1
2017-Nov-15 00:30N 17°08' W 061°51'153754237.4
2017-Nov-15 00:28N 39°54' W 075°12'15373258.1
2017-Nov-15 00:00N 17°08' W 061°51'153753710.7
2017-Nov-14 23:58N 39°54' W 075°12'15373260.0
2017-Nov-14 23:30N 17°08' W 061°51'153754237.2
2017-Nov-14 23:28N 39°54' W 075°12'15373258.1
2017-Nov-14 23:00N 17°08' W 061°51'153753194.3
2017-Nov-14 22:58N 39°54' W 075°12'15373261.9
2017-Nov-14 22:30N 17°08' W 061°51'153754237.2
2017-Nov-14 22:28N 39°54' W 075°12'15373258.1
2017-Nov-14 22:00N 17°08' W 061°51'153754237.1
2017-Nov-14 21:58N 39°54' W 075°12'15373258.1
2017-Nov-14 21:30N 17°08' W 061°51'153753710.6
2017-Nov-14 21:28N 39°54' W 075°12'15373260.0
2017-Nov-14 21:00N 17°08' W 061°51'153753710.9
2017-Nov-14 20:58N 39°54' W 075°12'15373310.4
2017-Nov-14 20:30N 17°08' W 061°52'15371382932.2
2017-Nov-14 20:30N 39°54' W 075°12'0 0.0
2017-Nov-14 20:00N 39°54' W 075°12'15372765830.1
2017-Nov-14 20:00N 17°08' W 061°52'15373074.8
2017-Nov-14 19:30N 39°54' W 075°12'153759485.9
2017-Nov-14 19:29N 17°08' W 061°51'15373244.7
2017-Nov-14 19:01N 39°54' W 075°12'153758233.5
2017-Nov-14 18:59N 17°08' W 061°51'15373242.8
2017-Nov-14 18:30N 39°54' W 075°12'153758233.6
2017-Nov-14 18:29N 17°08' W 061°51'15373248.5
2017-Nov-14 18:01N 39°54' W 075°12'153757033.1
2017-Nov-14 17:59N 17°08' W 061°51'15373244.7
2017-Nov-14 17:30N 39°54' W 075°12'153758853.4
2017-Nov-14 17:29N 17°08' W 061°51'15353228.4
2017-Nov-14 17:00N 39°53' W 075°10'153562101.1
2017-Nov-14 16:59N 17°08' W 061°51'15373232.4
2017-Nov-14 16:30N 39°56' W 075°08'153762885.4
2017-Nov-14 16:29N 17°08' W 061°51'15383237.9
2017-Nov-14 16:00N 39°59' W 075°05'153861520.1
2017-Nov-14 15:59N 17°08' W 061°51'15383235.7
2017-Nov-14 15:30N 39°59' W 075°04'153862912.0
2017-Nov-14 15:29N 17°08' W 061°51'15383218.8
2017-Nov-14 15:00N 39°59' W 075°04'153868350.2
2017-Nov-14 14:59N 17°08' W 061°51'15383246.1
2017-Nov-14 14:30N 39°57' W 075°08'153858912.8
2017-Nov-14 14:29N 17°08' W 061°51'15353239.2
2017-Nov-14 14:00N 39°54' W 075°08'1535690754.8
2017-Nov-14 14:00N 17°08' W 061°51'15353074.4
2017-Nov-14 13:30N 39°52' W 075°13'153533705.6
2017-Nov-14 13:28N 17°08' W 061°51'15373391.3
2017-Nov-14 13:00N 39°51' W 075°20'153732943.5
2017-Nov-14 12:58N 17°08' W 061°51'15373390.6
2017-Nov-14 12:30N 39°48' W 075°25'3 6.1
2017-Nov-14 12:00N 39°47' W 075°28'510.1
2017-Nov-14 11:30N 39°42' W 075°31'5 9.6
2017-Nov-14 11:00N 39°38' W 075°34'4 8.4
2017-Nov-14 10:30N 39°34' W 075°33'510.5
2017-Nov-14 10:00N 39°29' W 075°34'5 9.4
2017-Nov-14 09:30N 39°25' W 075°31'5 9.8
2017-Nov-14 09:00N 39°21' W 075°26'5 9.8
2017-Nov-14 08:30N 39°17' W 075°22'5 9.5
2017-Nov-14 08:00N 39°14' W 075°18'5 9.3
2017-Nov-14 07:30N 39°10' W 075°15'5 9.9
2017-Nov-14 07:00N 39°06' W 075°12'5 9.6
2017-Nov-14 06:30N 39°01' W 075°09'5 9.7
2017-Nov-14 06:00N 38°57' W 075°07'5 8.6
2017-Nov-14 05:23N 38°52' W 075°04'3 8.9
2017-Nov-14 05:00N 38°49' W 075°02'4 8.2
2017-Nov-14 04:30N 38°49' W 074°57'5 9.4
2017-Nov-14 03:58N 38°50' W 074°51'12 9.6
2017-Nov-14 02:41N 38°60' W 074°41'3 9.8
2017-Nov-14 02:20N 39°02' W 074°38'3 9.7
2017-Nov-14 02:00N 39°04' W 074°35'5 9.3
2017-Nov-14 01:30N 39°08' W 074°31'5 9.8
2017-Nov-14 01:00N 39°11' W 074°27'9 9.8
2017-Nov-14 00:07N 39°18' W 074°19'1 9.8
2017-Nov-13 23:58N 39°19' W 074°18'9 9.8
2017-Nov-13 23:05N 39°26' W 074°11'3 8.9
2017-Nov-13 22:43N 39°29' W 074°09'3 9.7
2017-Nov-13 22:25N 39°31' W 074°07'4 9.7
2017-Nov-13 22:00N 39°35' W 074°05'59 2.1
2017-Nov-12 18:19N 40°33' W 074°15'2 5.6
2017-Nov-12 17:58N 40°35' W 074°13'2 5.3
2017-Nov-12 17:30N 40°37' W 074°12'2 3.1
2017-Nov-12 17:00N 40°38' W 074°12'3 6.4
2017-Nov-12 16:30N 40°39' W 074°07'4 7.2
2017-Nov-12 16:00N 40°40' W 074°03'0 0.3
2017-Nov-12 15:30N 40°40' W 074°03'0 0.0
2017-Nov-12 15:00N 40°40' W 074°03'0 0.0
2017-Nov-12 14:30N 40°40' W 074°03'0 0.0
2017-Nov-12 14:00N 40°40' W 074°03'0 0.0
2017-Nov-12 13:30N 40°40' W 074°03'0 0.0
2017-Nov-12 13:00N 40°40' W 074°03'0 0.0
2017-Nov-12 12:30N 40°40' W 074°03'0 0.0
2017-Nov-12 12:00N 40°40' W 074°03'0 0.1
2017-Nov-12 11:30N 40°40' W 074°03'0 0.0
2017-Nov-12 11:00N 40°40' W 074°03'0 0.2
2017-Nov-12 10:30N 40°40' W 074°03'0 0.2
2017-Nov-12 10:00N 40°40' W 074°02'0 0.1
2017-Nov-12 09:30N 40°40' W 074°02'0 0.0
2017-Nov-12 09:00N 40°40' W 074°03'0 0.0
2017-Nov-12 08:30N 40°40' W 074°03'0 0.0
2017-Nov-12 08:00N 40°40' W 074°02'0 0.0
2017-Nov-12 07:30N 40°40' W 074°02'0 0.0
2017-Nov-12 07:00N 40°40' W 074°03'0 0.1
2017-Nov-12 06:30N 40°40' W 074°03'0 0.2
2017-Nov-12 06:00N 40°40' W 074°03'0 0.2
2017-Nov-12 05:30N 40°40' W 074°03'0 0.1
2017-Nov-12 05:00N 40°40' W 074°03'0 0.1
2017-Nov-12 04:30N 40°40' W 074°03'0 0.0
2017-Nov-12 04:00N 40°40' W 074°03'0 0.0
2017-Nov-12 03:30N 40°40' W 074°03'0 0.0
2017-Nov-12 03:00N 40°40' W 074°03'0 0.0
2017-Nov-12 02:30N 40°40' W 074°03'0 0.0
2017-Nov-12 02:00N 40°40' W 074°03'0 0.0
2017-Nov-12 01:30N 40°40' W 074°03'0 0.0
2017-Nov-12 01:00N 40°40' W 074°03'0 0.0
2017-Nov-12 00:30N 40°40' W 074°03'0 0.1
2017-Nov-12 00:00N 40°40' W 074°03'0 0.0
2017-Nov-11 23:30N 40°40' W 074°03'0 0.0
2017-Nov-11 23:00N 40°40' W 074°03'0 0.0
2017-Nov-11 22:30N 40°40' W 074°03'0 0.1
2017-Nov-11 22:00N 40°40' W 074°03'0 0.3
2017-Nov-11 21:30N 40°40' W 074°03'0 0.1
2017-Nov-11 21:00N 40°40' W 074°03'0 0.0
2017-Nov-11 20:30N 40°40' W 074°03'0 0.0
2017-Nov-11 20:00N 40°40' W 074°03'0 0.0
2017-Nov-11 19:30N 40°40' W 074°03'0 0.0
2017-Nov-11 19:00N 40°40' W 074°03'0 0.0
2017-Nov-11 18:30N 40°40' W 074°03'0 0.1
2017-Nov-11 18:00N 40°40' W 074°03'0 0.0
2017-Nov-11 17:30N 40°40' W 074°03'0 0.3
2017-Nov-11 17:00N 40°40' W 074°03'0 0.1
2017-Nov-11 16:30N 40°40' W 074°03'0 0.1
2017-Nov-11 16:00N 40°40' W 074°03'0 0.1
2017-Nov-11 15:30N 40°40' W 074°03'0 0.0
2017-Nov-11 15:00N 40°40' W 074°03'0 0.0
2017-Nov-11 14:30N 40°40' W 074°03'0 0.0
2017-Nov-11 14:00N 40°40' W 074°03'0 0.0
2017-Nov-11 13:30N 40°40' W 074°03'0 0.0
2017-Nov-11 13:00N 40°40' W 074°03'0 0.0
2017-Nov-11 12:30N 40°40' W 074°03'0 0.0
2017-Nov-11 12:00N 40°40' W 074°03'0 0.0
2017-Nov-11 11:30N 40°40' W 074°03'0 0.0
2017-Nov-11 11:00N 40°40' W 074°03'0 0.0
2017-Nov-11 10:30N 40°40' W 074°03'0 0.0
2017-Nov-11 10:00N 40°40' W 074°03'0 0.1
2017-Nov-11 09:30N 40°40' W 074°03'0 0.2
2017-Nov-11 09:00N 40°40' W 074°02'0 0.3
2017-Nov-11 08:30N 40°40' W 074°03'0 0.1
2017-Nov-11 08:00N 40°40' W 074°03'0 0.1
2017-Nov-11 07:30N 40°40' W 074°03'0 0.0
2017-Nov-11 07:00N 40°40' W 074°03'0 0.0
2017-Nov-11 06:30N 40°40' W 074°03'0 0.0
2017-Nov-11 06:00N 40°40' W 074°03'0 0.1
2017-Nov-11 05:30N 40°40' W 074°02'0 0.2
2017-Nov-11 05:00N 40°40' W 074°02'0 0.2
2017-Nov-11 04:30N 40°40' W 074°03'0 0.1
2017-Nov-11 04:00N 40°40' W 074°03'0 0.1
2017-Nov-11 03:30N 40°40' W 074°03'0 0.0
2017-Nov-11 03:00N 40°40' W 074°03'0 0.0
2017-Nov-11 02:30N 40°40' W 074°03'0 0.1
2017-Nov-11 02:00N 40°40' W 074°03'0 0.1
2017-Nov-11 01:30N 40°40' W 074°03'0 0.0
2017-Nov-11 01:00N 40°40' W 074°03'0 0.0
2017-Nov-11 00:30N 40°40' W 074°03'0 0.0
2017-Nov-11 00:00N 40°40' W 074°03'0 0.0
2017-Nov-10 23:27N 40°40' W 074°03'0 0.0
2017-Nov-10 23:00N 40°40' W 074°03'0 0.9
2017-Nov-10 22:30N 40°39' W 074°03'3 5.6
2017-Nov-10 22:00N 40°36' W 074°03'2 3.5
2017-Nov-10 21:30N 40°35' W 074°02'1 1.6
2017-Nov-10 21:00N 40°34' W 074°02'2 4.3
2017-Nov-10 20:30N 40°32' W 074°01'3 5.0
2017-Nov-10 20:00N 40°31' W 073°58'3 5.2
2017-Nov-10 19:28N 40°29' W 073°55'41 5.9
2017-Nov-10 12:32N 39°48' W 073°58'0 6.2
2017-Nov-10 12:30N 39°48' W 073°58'4 6.4
2017-Nov-10 11:55N 39°45' W 073°59'3 6.4
2017-Nov-10 11:30N 39°42' W 074°00'3 6.5
2017-Nov-10 10:58N 39°39' W 074°02'3 6.6
2017-Nov-10 10:30N 39°36' W 074°04'4 6.7
2017-Nov-10 09:54N 39°32' W 074°06'37 6.6
2017-Nov-10 04:17N 39°03' W 074°36'3 6.2
2017-Nov-10 03:51N 39°01' W 074°38'5 6.0
2017-Nov-10 02:57N 38°57' W 074°43'3 6.0
2017-Nov-10 02:28N 38°55' W 074°46'  

Dump ship's entire track history